sensor_id;sensor_type;location;lat;lon;timestamp;temperature;humidity
10662;DHT22;5379;51.034;7.006;2023-02-15T00:02:00;7.50;99.90
10662;DHT22;5379;51.034;7.006;2023-02-15T00:04:27;7.50;99.90
10662;DHT22;5379;51.034;7.006;2023-02-15T00:07:14;7.60;99.90
10662;DHT22;5379;51.034;7.006;2023-02-15T00:09:41;7.50;99.90
10662;DHT22;5379;51.034;7.006;2023-02-15T00:12:09;7.50;99.90
10662;DHT22;5379;51.034;7.006;2023-02-15T00:14:36;7.50;99.90
10662;DHT22;5379;51.034;7.006;2023-02-15T00:17:03;7.40;99.90
10662;DHT22;5379;51.034;7.006;2023-02-15T00:19:29;7.40;99.90
10662;DHT22;5379;51.034;7.006;2023-02-15T00:21:56;7.40;99.90
10662;DHT22;5379;51.034;7.006;2023-02-15T00:24:25;7.40;99.90
10662;DHT22;5379;51.034;7.006;2023-02-15T00:26:52;7.40;99.90
10662;DHT22;5379;51.034;7.006;2023-02-15T00:29:19;7.30;99.90
10662;DHT22;5379;51.034;7.006;2023-02-15T00:31:46;7.30;99.90
10662;DHT22;5379;51.034;7.006;2023-02-15T00:34:15;7.30;99.90
10662;DHT22;5379;51.034;7.006;2023-02-15T00:36:44;7.20;99.90
10662;DHT22;5379;51.034;7.006;2023-02-15T00:39:11;7.10;99.90
10662;DHT22;5379;51.034;7.006;2023-02-15T00:41:40;7.00;99.90
10662;DHT22;5379;51.034;7.006;2023-02-15T00:44:08;7.10;99.90
10662;DHT22;5379;51.034;7.006;2023-02-15T00:46:35;7.10;99.90
10662;DHT22;5379;51.034;7.006;2023-02-15T00:49:03;7.00;99.90
10662;DHT22;5379;51.034;7.006;2023-02-15T00:51:30;7.00;99.90
10662;DHT22;5379;51.034;7.006;2023-02-15T00:53:57;7.10;99.90
10662;DHT22;5379;51.034;7.006;2023-02-15T00:56:24;7.10;99.90
10662;DHT22;5379;51.034;7.006;2023-02-15T00:58:55;7.10;99.90
10662;DHT22;5379;51.034;7.006;2023-02-15T05:30:48;4.80;99.90
10662;DHT22;5379;51.034;7.006;2023-02-15T05:33:15;4.70;99.90
10662;DHT22;5379;51.034;7.006;2023-02-15T05:35:42;4.60;99.90
10662;DHT22;5379;51.034;7.006;2023-02-15T05:38:09;4.80;99.90
10662;DHT22;5379;51.034;7.006;2023-02-15T05:40:36;4.90;99.90
10662;DHT22;5379;51.034;7.006;2023-02-15T05:43:03;5.00;99.90
10662;DHT22;5379;51.034;7.006;2023-02-15T05:45:30;4.90;99.90
10662;DHT22;5379;51.034;7.006;2023-02-15T05:47:59;4.90;99.90
10662;DHT22;5379;51.034;7.006;2023-02-15T05:50:26;4.90;99.90
10662;DHT22;5379;51.034;7.006;2023-02-15T05:52:53;5.00;99.90
10662;DHT22;5379;51.034;7.006;2023-02-15T05:55:20;5.00;99.90
10662;DHT22;5379;51.034;7.006;2023-02-15T05:57:47;5.00;99.90
10662;DHT22;5379;51.034;7.006;2023-02-15T06:00:15;4.90;99.90
10662;DHT22;5379;51.034;7.006;2023-02-15T06:02:42;4.80;99.90
10662;DHT22;5379;51.034;7.006;2023-02-15T06:05:11;4.80;99.90
10662;DHT22;5379;51.034;7.006;2023-02-15T06:07:38;4.80;99.90
10662;DHT22;5379;51.034;7.006;2023-02-15T06:10:06;4.80;99.90
10662;DHT22;5379;51.034;7.006;2023-02-15T06:12:33;4.90;99.90
10662;DHT22;5379;51.034;7.006;2023-02-15T06:15:00;4.90;99.90
10662;DHT22;5379;51.034;7.006;2023-02-15T06:17:27;4.90;99.90
10662;DHT22;5379;51.034;7.006;2023-02-15T06:19:54;4.90;99.90
10662;DHT22;5379;51.034;7.006;2023-02-15T06:22:22;5.00;99.90
10662;DHT22;5379;51.034;7.006;2023-02-15T06:24:49;5.10;99.90
10662;DHT22;5379;51.034;7.006;2023-02-15T06:27:16;4.90;99.90
10662;DHT22;5379;51.034;7.006;2023-02-15T06:29:43;4.80;99.90
10662;DHT22;5379;51.034;7.006;2023-02-15T06:32:10;4.70;99.90
10662;DHT22;5379;51.034;7.006;2023-02-15T06:34:37;4.80;99.90
10662;DHT22;5379;51.034;7.006;2023-02-15T06:37:04;4.80;99.90
10662;DHT22;5379;51.034;7.006;2023-02-15T06:39:35;4.70;99.90
10662;DHT22;5379;51.034;7.006;2023-02-15T06:42:02;4.60;99.90
10662;DHT22;5379;51.034;7.006;2023-02-15T06:44:29;4.80;99.90
10662;DHT22;5379;51.034;7.006;2023-02-15T06:46:55;4.90;99.90
10662;DHT22;5379;51.034;7.006;2023-02-15T06:49:22;5.00;99.90
10662;DHT22;5379;51.034;7.006;2023-02-15T06:51:49;4.90;99.90
10662;DHT22;5379;51.034;7.006;2023-02-15T06:54:16;4.80;99.90
10662;DHT22;5379;51.034;7.006;2023-02-15T06:56:45;4.90;99.90
10662;DHT22;5379;51.034;7.006;2023-02-15T06:59:12;4.90;99.90
10662;DHT22;5379;51.034;7.006;2023-02-15T07:01:38;4.80;99.90
10662;DHT22;5379;51.034;7.006;2023-02-15T07:04:05;4.70;99.90
10662;DHT22;5379;51.034;7.006;2023-02-15T07:06:33;4.70;99.90
10662;DHT22;5379;51.034;7.006;2023-02-15T07:09:01;4.90;99.90
10662;DHT22;5379;51.034;7.006;2023-02-15T07:11:28;5.00;99.90
10662;DHT22;5379;51.034;7.006;2023-02-15T07:14:14;5.00;99.90
10662;DHT22;5379;51.034;7.006;2023-02-15T07:16:41;5.00;99.90
10662;DHT22;5379;51.034;7.006;2023-02-15T07:19:08;5.10;99.90
10662;DHT22;5379;51.034;7.006;2023-02-15T07:21:35;5.00;99.90
10662;DHT22;5379;51.034;7.006;2023-02-15T07:24:02;5.10;99.90
10662;DHT22;5379;51.034;7.006;2023-02-15T07:26:31;5.00;99.90
10662;DHT22;5379;51.034;7.006;2023-02-15T07:28:58;5.00;99.90
10662;DHT22;5379;51.034;7.006;2023-02-15T07:31:26;4.90;99.90
10662;DHT22;5379;51.034;7.006;2023-02-15T07:33:53;5.00;99.90
10662;DHT22;5379;51.034;7.006;2023-02-15T07:36:20;5.00;99.90
10662;DHT22;5379;51.034;7.006;2023-02-15T07:38:47;5.20;99.90
10662;DHT22;5379;51.034;7.006;2023-02-15T07:41:15;5.30;99.90
10662;DHT22;5379;51.034;7.006;2023-02-15T07:43:44;5.40;99.90
10662;DHT22;5379;51.034;7.006;2023-02-15T07:46:13;5.30;99.90
10662;DHT22;5379;51.034;7.006;2023-02-15T07:48:44;5.30;99.90
10662;DHT22;5379;51.034;7.006;2023-02-15T07:51:11;5.30;99.90
10662;DHT22;5379;51.034;7.006;2023-02-15T07:53:40;5.50;99.90
10662;DHT22;5379;51.034;7.006;2023-02-15T07:56:10;5.50;99.90
10662;DHT22;5379;51.034;7.006;2023-02-15T07:58:38;5.50;99.90
10662;DHT22;5379;51.034;7.006;2023-02-15T08:01:23;5.60;99.90
10662;DHT22;5379;51.034;7.006;2023-02-15T08:03:52;5.70;99.90
10662;DHT22;5379;51.034;7.006;2023-02-15T08:06:19;5.90;99.90
10662;DHT22;5379;51.034;7.006;2023-02-15T08:08:47;5.80;99.90
10662;DHT22;5379;51.034;7.006;2023-02-15T08:11:16;5.90;99.90
10662;DHT22;5379;51.034;7.006;2023-02-15T08:13:55;6.00;99.90
10662;DHT22;5379;51.034;7.006;2023-02-15T08:16:27;6.00;99.90
10662;DHT22;5379;51.034;7.006;2023-02-15T08:18:56;5.30;99.90
10662;DHT22;5379;51.034;7.006;2023-02-15T08:21:25;6.30;99.90
10662;DHT22;5379;51.034;7.006;2023-02-15T08:23:53;6.30;99.90
10662;DHT22;5379;51.034;7.006;2023-02-15T08:26:21;6.40;99.90
10662;DHT22;5379;51.034;7.006;2023-02-15T08:28:48;6.60;99.90
10662;DHT22;5379;51.034;7.006;2023-02-15T08:31:16;6.60;99.90
10662;DHT22;5379;51.034;7.006;2023-02-15T08:33:44;6.80;99.90
10662;DHT22;5379;51.034;7.006;2023-02-15T08:36:14;6.80;99.90
10662;DHT22;5379;51.034;7.006;2023-02-15T08:38:42;6.80;99.90
10662;DHT22;5379;51.034;7.006;2023-02-15T08:41:11;7.00;99.90
10662;DHT22;5379;51.034;7.006;2023-02-15T08:43:38;7.10;99.90
10662;DHT22;5379;51.034;7.006;2023-02-15T08:46:05;7.20;99.90
10662;DHT22;5379;51.034;7.006;2023-02-15T08:48:32;7.40;99.90
10662;DHT22;5379;51.034;7.006;2023-02-15T08:51:04;7.40;99.90
10662;DHT22;5379;51.034;7.006;2023-02-15T08:53:33;7.40;99.90
10662;DHT22;5379;51.034;7.006;2023-02-15T08:56:00;7.40;99.90
10662;DHT22;5379;51.034;7.006;2023-02-15T08:58:28;7.50;99.90
10662;DHT22;5379;51.034;7.006;2023-02-15T09:00:56;7.60;99.90
10662;DHT22;5379;51.034;7.006;2023-02-15T09:03:23;7.50;99.90
10662;DHT22;5379;51.034;7.006;2023-02-15T09:05:50;7.70;99.90
10662;DHT22;5379;51.034;7.006;2023-02-15T09:08:17;7.90;99.90
10662;DHT22;5379;51.034;7.006;2023-02-15T09:10:45;8.00;99.90
10662;DHT22;5379;51.034;7.006;2023-02-15T09:13:12;8.00;99.90
10662;DHT22;5379;51.034;7.006;2023-02-15T09:15:40;8.10;99.90
10662;DHT22;5379;51.034;7.006;2023-02-15T09:18:07;8.10;99.90
10662;DHT22;5379;51.034;7.006;2023-02-15T09:20:35;8.30;99.90
10662;DHT22;5379;51.034;7.006;2023-02-15T09:23:03;8.30;99.90
10662;DHT22;5379;51.034;7.006;2023-02-15T09:25:30;8.40;99.90
10662;DHT22;5379;51.034;7.006;2023-02-15T09:27:58;8.40;99.90
10662;DHT22;5379;51.034;7.006;2023-02-15T09:30:25;8.50;99.90
10662;DHT22;5379;51.034;7.006;2023-02-15T09:32:52;8.60;99.90
10662;DHT22;5379;51.034;7.006;2023-02-15T09:35:19;8.70;99.90
10662;DHT22;5379;51.034;7.006;2023-02-15T09:37:46;8.90;99.90
10662;DHT22;5379;51.034;7.006;2023-02-15T09:40:14;9.00;99.90
10662;DHT22;5379;51.034;7.006;2023-02-15T09:43:16;9.10;99.60
10662;DHT22;5379;51.034;7.006;2023-02-15T09:46:01;9.30;99.70
10662;DHT22;5379;51.034;7.006;2023-02-15T09:48:39;9.40;99.50
10662;DHT22;5379;51.034;7.006;2023-02-15T09:51:29;9.60;99.30
10662;DHT22;5379;51.034;7.006;2023-02-15T09:54:13;9.70;99.60
10662;DHT22;5379;51.034;7.006;2023-02-15T09:56:48;9.70;99.00
10662;DHT22;5379;51.034;7.006;2023-02-15T09:59:25;9.70;99.10
10662;DHT22;5379;51.034;7.006;2023-02-15T10:02:04;9.70;99.10
10662;DHT22;5379;51.034;7.006;2023-02-15T10:04:49;9.90;98.70
10662;DHT22;5379;51.034;7.006;2023-02-15T10:07:30;9.90;98.60
10662;DHT22;5379;51.034;7.006;2023-02-15T10:10:17;9.70;98.60
10662;DHT22;5379;51.034;7.006;2023-02-15T10:12:57;9.70;99.00
10662;DHT22;5379;51.034;7.006;2023-02-15T10:15:37;9.80;98.70
10662;DHT22;5379;51.034;7.006;2023-02-15T10:18:23;9.90;99.00
10662;DHT22;5379;51.034;7.006;2023-02-15T10:20:59;9.80;98.70
10662;DHT22;5379;51.034;7.006;2023-02-15T10:23:46;9.90;98.70
10662;DHT22;5379;51.034;7.006;2023-02-15T10:26:18;9.90;98.70
10662;DHT22;5379;51.034;7.006;2023-02-15T10:28:49;9.90;98.70
10662;DHT22;5379;51.034;7.006;2023-02-15T10:31:23;9.90;98.70
10662;DHT22;5379;51.034;7.006;2023-02-15T10:34:02;10.20;98.10
10662;DHT22;5379;51.034;7.006;2023-02-15T10:36:49;10.20;97.80
10662;DHT22;5379;51.034;7.006;2023-02-15T10:39:23;10.30;98.00
10662;DHT22;5379;51.034;7.006;2023-02-15T10:41:57;10.30;97.80
10662;DHT22;5379;51.034;7.006;2023-02-15T10:44:39;10.40;97.80
10662;DHT22;5379;51.034;7.006;2023-02-15T10:47:33;10.50;97.90
10662;DHT22;5379;51.034;7.006;2023-02-15T10:53:38;10.70;97.40
10662;DHT22;5379;51.034;7.006;2023-02-15T10:56:16;10.90;97.20
10662;DHT22;5379;51.034;7.006;2023-02-15T10:59:23;11.00;97.40
10662;DHT22;5379;51.034;7.006;2023-02-15T11:02:00;11.00;97.40
10662;DHT22;5379;51.034;7.006;2023-02-15T11:04:40;11.10;97.20
10662;DHT22;5379;51.034;7.006;2023-02-15T11:07:14;11.20;97.00
10662;DHT22;5379;51.034;7.006;2023-02-15T11:09:45;11.20;97.10
10662;DHT22;5379;51.034;7.006;2023-02-15T11:12:16;11.30;97.20
10662;DHT22;5379;51.034;7.006;2023-02-15T11:14:46;11.40;97.10
10662;DHT22;5379;51.034;7.006;2023-02-15T11:17:19;11.50;97.00
10662;DHT22;5379;51.034;7.006;2023-02-15T11:19:56;11.60;96.90
10662;DHT22;5379;51.034;7.006;2023-02-15T11:22:26;11.60;96.60
10662;DHT22;5379;51.034;7.006;2023-02-15T11:24:54;11.60;96.50
10662;DHT22;5379;51.034;7.006;2023-02-15T11:27:25;11.60;96.90
10662;DHT22;5379;51.034;7.006;2023-02-15T11:29:58;11.70;96.60
10662;DHT22;5379;51.034;7.006;2023-02-15T11:32:28;11.90;96.70
10662;DHT22;5379;51.034;7.006;2023-02-15T11:35:01;12.00;96.70
10662;DHT22;5379;51.034;7.006;2023-02-15T11:37:33;12.10;96.40
10662;DHT22;5379;51.034;7.006;2023-02-15T11:40:03;12.20;96.50
10662;DHT22;5379;51.034;7.006;2023-02-15T11:42:33;12.30;96.20
10662;DHT22;5379;51.034;7.006;2023-02-15T11:45:06;12.30;96.00
10662;DHT22;5379;51.034;7.006;2023-02-15T11:47:42;12.50;96.10
10662;DHT22;5379;51.034;7.006;2023-02-15T11:50:14;12.60;96.10
10662;DHT22;5379;51.034;7.006;2023-02-15T11:52:42;12.60;95.90
10662;DHT22;5379;51.034;7.006;2023-02-15T11:55:12;12.50;96.10
10662;DHT22;5379;51.034;7.006;2023-02-15T11:57:43;12.60;96.20
10662;DHT22;5379;51.034;7.006;2023-02-15T12:00:16;12.70;96.10
10662;DHT22;5379;51.034;7.006;2023-02-15T12:02:52;12.80;95.90
10662;DHT22;5379;51.034;7.006;2023-02-15T12:05:23;12.80;95.90
10662;DHT22;5379;51.034;7.006;2023-02-15T12:07:54;12.80;95.60
10662;DHT22;5379;51.034;7.006;2023-02-15T12:10:24;12.70;95.80
10662;DHT22;5379;51.034;7.006;2023-02-15T12:13:10;12.80;96.10
10662;DHT22;5379;51.034;7.006;2023-02-15T12:15:42;12.80;96.00
10662;DHT22;5379;51.034;7.006;2023-02-15T12:18:19;12.90;95.80
10662;DHT22;5379;51.034;7.006;2023-02-15T12:20:49;12.90;95.80
10662;DHT22;5379;51.034;7.006;2023-02-15T12:23:17;13.00;95.60
10662;DHT22;5379;51.034;7.006;2023-02-15T12:25:51;13.30;95.70
10662;DHT22;5379;51.034;7.006;2023-02-15T12:28:25;13.40;95.70
10662;DHT22;5379;51.034;7.006;2023-02-15T12:30:54;13.50;95.50
10662;DHT22;5379;51.034;7.006;2023-02-15T12:33:26;13.40;95.50
10662;DHT22;5379;51.034;7.006;2023-02-15T12:35:59;13.50;95.30
10662;DHT22;5379;51.034;7.006;2023-02-15T12:38:28;13.60;95.60
10662;DHT22;5379;51.034;7.006;2023-02-15T12:41:00;13.60;95.40
10662;DHT22;5379;51.034;7.006;2023-02-15T12:43:31;13.70;95.00
10662;DHT22;5379;51.034;7.006;2023-02-15T12:46:20;13.80;95.10
10662;DHT22;5379;51.034;7.006;2023-02-15T12:49:05;13.90;95.10
10662;DHT22;5379;51.034;7.006;2023-02-15T12:51:45;14.00;95.00
10662;DHT22;5379;51.034;7.006;2023-02-15T12:54:29;14.40;96.90
10662;DHT22;5379;51.034;7.006;2023-02-15T12:56:56;15.60;99.20
10662;DHT22;5379;51.034;7.006;2023-02-15T12:59:24;16.50;97.90
10662;DHT22;5379;51.034;7.006;2023-02-15T13:01:52;17.00;96.20
10662;DHT22;5379;51.034;7.006;2023-02-15T13:04:23;17.50;95.50
10662;DHT22;5379;51.034;7.006;2023-02-15T13:06:55;17.80;94.70
10662;DHT22;5379;51.034;7.006;2023-02-15T13:09:34;18.20;94.70
10662;DHT22;5379;51.034;7.006;2023-02-15T13:12:17;17.50;91.40
10662;DHT22;5379;51.034;7.006;2023-02-15T13:14:46;16.50;92.30
10662;DHT22;5379;51.034;7.006;2023-02-15T13:17:16;15.60;93.00
10662;DHT22;5379;51.034;7.006;2023-02-15T13:22:54;15.00;93.70
10662;DHT22;5379;51.034;7.006;2023-02-15T13:25:24;14.90;93.70
10662;DHT22;5379;51.034;7.006;2023-02-15T13:27:54;14.80;93.70
10662;DHT22;5379;51.034;7.006;2023-02-15T13:30:27;14.80;93.80
10662;DHT22;5379;51.034;7.006;2023-02-15T13:33:01;14.80;93.80
10662;DHT22;5379;51.034;7.006;2023-02-15T13:35:36;14.80;93.80
10662;DHT22;5379;51.034;7.006;2023-02-15T13:38:21;14.90;94.00
10662;DHT22;5379;51.034;7.006;2023-02-15T13:40:57;15.10;93.90
10662;DHT22;5379;51.034;7.006;2023-02-15T13:43:35;15.20;93.80
10662;DHT22;5379;51.034;7.006;2023-02-15T13:46:14;15.30;93.80
10662;DHT22;5379;51.034;7.006;2023-02-15T13:48:49;15.00;93.70
10662;DHT22;5379;51.034;7.006;2023-02-15T13:51:21;15.00;93.80
10662;DHT22;5379;51.034;7.006;2023-02-15T13:54:05;14.90;93.70
10662;DHT22;5379;51.034;7.006;2023-02-15T13:56:44;14.90;93.90
10662;DHT22;5379;51.034;7.006;2023-02-15T13:59:27;15.00;94.00
10662;DHT22;5379;51.034;7.006;2023-02-15T14:02:22;14.90;94.20
10662;DHT22;5379;51.034;7.006;2023-02-15T14:05:02;15.00;94.10
10662;DHT22;5379;51.034;7.006;2023-02-15T14:07:46;15.30;94.10
10662;DHT22;5379;51.034;7.006;2023-02-15T14:10:35;15.50;93.30
10662;DHT22;5379;51.034;7.006;2023-02-15T14:16:30;15.50;93.90
10662;DHT22;5379;51.034;7.006;2023-02-15T14:19:13;15.40;93.70
10662;DHT22;5379;51.034;7.006;2023-02-15T14:21:48;15.40;93.30
10662;DHT22;5379;51.034;7.006;2023-02-15T14:24:28;15.40;93.60
10662;DHT22;5379;51.034;7.006;2023-02-15T14:27:26;14.10;93.50
10662;DHT22;5379;51.034;7.006;2023-02-15T14:30:00;15.00;93.40
10662;DHT22;5379;51.034;7.006;2023-02-15T14:32:34;15.30;93.20
10662;DHT22;5379;51.034;7.006;2023-02-15T14:35:08;15.30;93.30
10662;DHT22;5379;51.034;7.006;2023-02-15T14:37:43;15.40;93.40
10662;DHT22;5379;51.034;7.006;2023-02-15T14:40:23;15.40;93.70
10662;DHT22;5379;51.034;7.006;2023-02-15T14:43:15;15.40;93.80
10662;DHT22;5379;51.034;7.006;2023-02-15T14:45:50;15.40;93.80
10662;DHT22;5379;51.034;7.006;2023-02-15T14:48:23;15.30;93.80
10662;DHT22;5379;51.034;7.006;2023-02-15T14:50:51;15.30;93.80
10662;DHT22;5379;51.034;7.006;2023-02-15T14:53:36;15.40;93.80
10662;DHT22;5379;51.034;7.006;2023-02-15T14:56:23;15.40;93.70
10662;DHT22;5379;51.034;7.006;2023-02-15T14:59:14;15.30;93.70
10662;DHT22;5379;51.034;7.006;2023-02-15T15:01:57;15.30;93.80
10662;DHT22;5379;51.034;7.006;2023-02-15T15:04:31;15.20;93.90
10662;DHT22;5379;51.034;7.006;2023-02-15T15:07:08;15.10;93.90
10662;DHT22;5379;51.034;7.006;2023-02-15T15:09:37;15.20;94.00
10662;DHT22;5379;51.034;7.006;2023-02-15T15:12:37;15.10;94.00
10662;DHT22;5379;51.034;7.006;2023-02-15T15:29:38;15.10;94.00
10662;DHT22;5379;51.034;7.006;2023-02-15T15:32:08;15.20;94.40
10662;DHT22;5379;51.034;7.006;2023-02-15T15:34:56;15.20;94.60
10662;DHT22;5379;51.034;7.006;2023-02-15T15:41:03;15.10;94.40
10662;DHT22;5379;51.034;7.006;2023-02-15T15:47:28;15.10;94.40
10662;DHT22;5379;51.034;7.006;2023-02-15T15:49:59;15.30;94.50
10662;DHT22;5379;51.034;7.006;2023-02-15T15:52:27;15.40;94.60
10662;DHT22;5379;51.034;7.006;2023-02-15T15:55:05;15.30;94.50
10662;DHT22;5379;51.034;7.006;2023-02-15T15:57:43;15.20;94.30
10662;DHT22;5379;51.034;7.006;2023-02-15T16:00:31;15.10;94.40
10662;DHT22;5379;51.034;7.006;2023-02-15T16:06:32;14.90;94.30
10662;DHT22;5379;51.034;7.006;2023-02-15T16:09:11;14.90;94.70
10662;DHT22;5379;51.034;7.006;2023-02-15T16:11:38;14.70;94.60
10662;DHT22;5379;51.034;7.006;2023-02-15T16:14:14;14.50;94.80
10662;DHT22;5379;51.034;7.006;2023-02-15T16:16:48;13.90;94.80
10662;DHT22;5379;51.034;7.006;2023-02-15T16:19:26;14.40;95.20
10662;DHT22;5379;51.034;7.006;2023-02-15T16:21:58;14.20;95.20
10662;DHT22;5379;51.034;7.006;2023-02-15T16:24:51;14.00;95.20
10662;DHT22;5379;51.034;7.006;2023-02-15T16:27:34;14.00;95.50
10662;DHT22;5379;51.034;7.006;2023-02-15T16:30:27;14.00;95.60
10662;DHT22;5379;51.034;7.006;2023-02-15T16:33:03;14.00;95.60
10662;DHT22;5379;51.034;7.006;2023-02-15T16:35:30;13.90;95.70
10662;DHT22;5379;51.034;7.006;2023-02-15T16:38:04;13.80;95.80
10662;DHT22;5379;51.034;7.006;2023-02-15T16:40:45;14.00;95.80
10662;DHT22;5379;51.034;7.006;2023-02-15T16:43:18;14.10;95.90
10662;DHT22;5379;51.034;7.006;2023-02-15T16:45:46;14.20;95.90
10662;DHT22;5379;51.034;7.006;2023-02-15T16:48:18;14.20;95.40
10662;DHT22;5379;51.034;7.006;2023-02-15T16:50:49;14.10;95.70
10662;DHT22;5379;51.034;7.006;2023-02-15T16:53:22;14.10;95.70
10662;DHT22;5379;51.034;7.006;2023-02-15T16:55:52;14.10;95.60
10662;DHT22;5379;51.034;7.006;2023-02-15T16:58:27;14.00;96.00
10662;DHT22;5379;51.034;7.006;2023-02-15T17:00:59;13.90;95.80
10662;DHT22;5379;51.034;7.006;2023-02-15T17:03:26;13.90;95.90
10662;DHT22;5379;51.034;7.006;2023-02-15T17:05:55;13.90;96.00
10662;DHT22;5379;51.034;7.006;2023-02-15T17:08:29;13.80;95.90
10662;DHT22;5379;51.034;7.006;2023-02-15T17:11:12;13.80;95.90
10662;DHT22;5379;51.034;7.006;2023-02-15T17:13:39;13.80;95.90
10662;DHT22;5379;51.034;7.006;2023-02-15T17:16:28;13.90;95.80
10662;DHT22;5379;51.034;7.006;2023-02-15T17:18:57;13.80;95.90
10662;DHT22;5379;51.034;7.006;2023-02-15T17:21:30;13.70;95.90
10662;DHT22;5379;51.034;7.006;2023-02-15T17:24:00;13.70;96.00
10662;DHT22;5379;51.034;7.006;2023-02-15T17:26:32;13.70;96.10
10662;DHT22;5379;51.034;7.006;2023-02-15T17:29:02;13.60;96.10
10662;DHT22;5379;51.034;7.006;2023-02-15T17:31:31;13.50;96.20
10662;DHT22;5379;51.034;7.006;2023-02-15T17:34:00;13.50;96.20
10662;DHT22;5379;51.034;7.006;2023-02-15T17:36:28;13.40;96.50
10662;DHT22;5379;51.034;7.006;2023-02-15T17:39:18;13.30;96.30
10662;DHT22;5379;51.034;7.006;2023-02-15T17:41:45;13.30;96.30
10662;DHT22;5379;51.034;7.006;2023-02-15T17:44:13;13.20;96.40
10662;DHT22;5379;51.034;7.006;2023-02-15T17:46:41;13.10;96.40
10662;DHT22;5379;51.034;7.006;2023-02-15T17:49:14;13.10;96.60
10662;DHT22;5379;51.034;7.006;2023-02-15T17:51:45;13.00;96.70
10662;DHT22;5379;51.034;7.006;2023-02-15T17:54:15;13.00;96.80
10662;DHT22;5379;51.034;7.006;2023-02-15T17:57:00;13.10;96.50
10662;DHT22;5379;51.034;7.006;2023-02-15T17:59:30;12.90;96.80
10662;DHT22;5379;51.034;7.006;2023-02-15T18:01:57;12.70;96.90
10662;DHT22;5379;51.034;7.006;2023-02-15T18:04:42;12.60;97.20
10662;DHT22;5379;51.034;7.006;2023-02-15T18:07:26;12.50;97.20
10662;DHT22;5379;51.034;7.006;2023-02-15T18:10:14;12.30;97.70
10662;DHT22;5379;51.034;7.006;2023-02-15T18:12:59;12.20;97.90
10662;DHT22;5379;51.034;7.006;2023-02-15T18:15:26;12.20;98.00
10662;DHT22;5379;51.034;7.006;2023-02-15T18:17:53;12.10;98.00
10662;DHT22;5379;51.034;7.006;2023-02-15T18:20:24;12.10;98.00
10662;DHT22;5379;51.034;7.006;2023-02-15T18:22:52;12.20;98.00
10662;DHT22;5379;51.034;7.006;2023-02-15T18:25:22;12.20;98.00
10662;DHT22;5379;51.034;7.006;2023-02-15T18:27:50;13.20;99.90
10662;DHT22;5379;51.034;7.006;2023-02-15T18:30:19;14.60;99.90
10662;DHT22;5379;51.034;7.006;2023-02-15T18:32:49;15.60;99.80
10662;DHT22;5379;51.034;7.006;2023-02-15T18:35:19;15.10;94.50
10662;DHT22;5379;51.034;7.006;2023-02-15T18:37:47;14.00;95.50
10662;DHT22;5379;51.034;7.006;2023-02-15T18:40:15;13.30;96.40
10662;DHT22;5379;51.034;7.006;2023-02-15T18:42:44;12.70;97.00
10662;DHT22;5379;51.034;7.006;2023-02-15T18:45:15;12.50;97.30
10662;DHT22;5379;51.034;7.006;2023-02-15T18:47:43;12.20;97.50
10662;DHT22;5379;51.034;7.006;2023-02-15T18:50:11;12.10;97.80
10662;DHT22;5379;51.034;7.006;2023-02-15T18:52:38;11.90;97.90
10662;DHT22;5379;51.034;7.006;2023-02-15T18:55:15;11.90;98.10
10662;DHT22;5379;51.034;7.006;2023-02-15T18:57:45;10.10;97.30
10662;DHT22;5379;51.034;7.006;2023-02-15T19:00:15;11.80;98.00
10662;DHT22;5379;51.034;7.006;2023-02-15T19:02:43;11.70;98.20
10662;DHT22;5379;51.034;7.006;2023-02-15T19:05:10;11.60;98.30
10662;DHT22;5379;51.034;7.006;2023-02-15T19:07:38;11.60;98.50
10662;DHT22;5379;51.034;7.006;2023-02-15T19:10:11;11.50;98.40
10662;DHT22;5379;51.034;7.006;2023-02-15T19:12:39;11.50;98.40
10662;DHT22;5379;51.034;7.006;2023-02-15T19:15:13;11.40;98.40
10662;DHT22;5379;51.034;7.006;2023-02-15T19:17:40;11.30;98.90
10662;DHT22;5379;51.034;7.006;2023-02-15T19:20:14;11.20;98.90
10662;DHT22;5379;51.034;7.006;2023-02-15T19:22:41;11.30;99.10
10662;DHT22;5379;51.034;7.006;2023-02-15T19:25:16;11.50;98.80
10662;DHT22;5379;51.034;7.006;2023-02-15T19:27:44;11.50;98.30
10662;DHT22;5379;51.034;7.006;2023-02-15T19:30:16;11.40;98.60
10662;DHT22;5379;51.034;7.006;2023-02-15T19:32:43;11.30;98.80
10662;DHT22;5379;51.034;7.006;2023-02-15T19:35:14;11.30;98.80
10662;DHT22;5379;51.034;7.006;2023-02-15T19:37:43;11.20;98.80
10662;DHT22;5379;51.034;7.006;2023-02-15T19:40:19;11.10;98.90
10662;DHT22;5379;51.034;7.006;2023-02-15T19:42:47;11.10;99.10
10662;DHT22;5379;51.034;7.006;2023-02-15T19:45:17;10.90;99.00
10662;DHT22;5379;51.034;7.006;2023-02-15T19:47:45;10.80;99.40
10662;DHT22;5379;51.034;7.006;2023-02-15T19:50:14;10.80;99.40
10662;DHT22;5379;51.034;7.006;2023-02-15T19:52:41;10.90;99.30
10662;DHT22;5379;51.034;7.006;2023-02-15T19:55:15;10.80;99.40
10662;DHT22;5379;51.034;7.006;2023-02-15T19:57:46;10.80;99.30
10662;DHT22;5379;51.034;7.006;2023-02-15T20:00:19;10.80;99.40
10662;DHT22;5379;51.034;7.006;2023-02-15T20:02:47;10.80;99.40
10662;DHT22;5379;51.034;7.006;2023-02-15T20:05:15;10.80;99.40
10662;DHT22;5379;51.034;7.006;2023-02-15T20:07:44;10.90;99.30
10662;DHT22;5379;51.034;7.006;2023-02-15T20:10:15;10.80;99.30
10662;DHT22;5379;51.034;7.006;2023-02-15T20:12:43;10.80;99.20
10662;DHT22;5379;51.034;7.006;2023-02-15T20:15:20;10.70;99.30
10662;DHT22;5379;51.034;7.006;2023-02-15T20:17:47;10.70;99.50
10662;DHT22;5379;51.034;7.006;2023-02-15T20:20:14;10.70;99.50
10662;DHT22;5379;51.034;7.006;2023-02-15T20:22:43;10.60;99.40
10662;DHT22;5379;51.034;7.006;2023-02-15T20:25:15;10.60;99.40
10662;DHT22;5379;51.034;7.006;2023-02-15T20:27:43;10.60;99.40
10662;DHT22;5379;51.034;7.006;2023-02-15T20:30:21;10.60;99.40
10662;DHT22;5379;51.034;7.006;2023-02-15T20:32:48;10.60;99.30
10662;DHT22;5379;51.034;7.006;2023-02-15T20:35:17;10.60;99.40
10662;DHT22;5379;51.034;7.006;2023-02-15T20:37:46;10.60;99.60
10662;DHT22;5379;51.034;7.006;2023-02-15T20:40:16;10.60;99.40
10662;DHT22;5379;51.034;7.006;2023-02-15T20:42:44;10.50;99.40
10662;DHT22;5379;51.034;7.006;2023-02-15T20:45:16;10.50;99.90
10662;DHT22;5379;51.034;7.006;2023-02-15T20:47:45;10.50;99.40
10662;DHT22;5379;51.034;7.006;2023-02-15T20:50:19;10.50;99.30
10662;DHT22;5379;51.034;7.006;2023-02-15T20:52:47;10.50;99.60
10662;DHT22;5379;51.034;7.006;2023-02-15T20:55:17;10.40;99.50
10662;DHT22;5379;51.034;7.006;2023-02-15T20:57:45;10.40;99.70
10662;DHT22;5379;51.034;7.006;2023-02-15T21:00:14;10.40;99.80
10662;DHT22;5379;51.034;7.006;2023-02-15T21:02:45;10.30;99.70
10662;DHT22;5379;51.034;7.006;2023-02-15T21:05:18;10.30;99.70
10662;DHT22;5379;51.034;7.006;2023-02-15T21:07:45;10.20;99.90
10662;DHT22;5379;51.034;7.006;2023-02-15T21:10:17;10.30;99.90
10662;DHT22;5379;51.034;7.006;2023-02-15T21:12:46;10.20;99.70
10662;DHT22;5379;51.034;7.006;2023-02-15T21:15:26;10.20;99.80
10662;DHT22;5379;51.034;7.006;2023-02-15T21:17:55;10.20;99.70
10662;DHT22;5379;51.034;7.006;2023-02-15T21:20:23;10.20;99.70
10662;DHT22;5379;51.034;7.006;2023-02-15T21:22:52;10.10;99.70
10662;DHT22;5379;51.034;7.006;2023-02-15T21:25:25;10.10;99.70
10662;DHT22;5379;51.034;7.006;2023-02-15T21:27:53;10.00;99.90
10662;DHT22;5379;51.034;7.006;2023-02-15T21:30:21;10.00;99.90